Terminal Aerodrome Forecast
Issued by NWS Sioux Falls, SD

Home | Current Version | Previous Version | Graphics & Text | Print | Product List | Glossary On
Versions: 1 2 3 4 5 6 7 8 9 10 11 12 13 14 15 16 17 18 19 20 21 22 23 24 25 26 27 28 29 30
063
FTUS43 KFSD 211129
TAFSUX
TAF
KSUX 211129Z 2112/2212 VRB03KT P6SM SKC
     FM212100 11003KT P6SM FEW250
     FM220000 08004KT P6SM SCT100
     FM220900 10005KT P6SM VCSH OVC025=

USA.gov is the U.S. government's official web portal to all federal, state and local government web resources and services.